Time;durP1;ratioP1;P1;durP2;ratioP2;P2;SDS_P1;SDS_P2;PMS_P1;PMS_P2;Temp;Humidity;BMP_temperature;BMP_pressure;BME280_temperature;BME280_humidity;BME280_pressure;Samples;Min_cycle;Max_cycle;Signal;HPM_P1;HPM_P2
2021/01/27 00:01:36;;;;;;;6.37;5.07;;;4.40;99.90;;;;;;4849990;29;20208;-83
2021/01/27 00:04:03;;;;;;;5.93;4.70;;;4.40;99.90;;;;;;4851369;29;20247;-83
2021/01/27 00:06:30;;;;;;;8.20;5.10;;;4.40;99.90;;;;;;4850802;29;20217;-83
2021/01/27 00:08:56;;;;;;;7.93;4.83;;;4.30;99.90;;;;;;4851921;29;20246;-84
2021/01/27 00:11:22;;;;;;;10.17;5.63;;;4.20;99.90;;;;;;4851787;29;20288;-83
2021/01/27 00:13:48;;;;;;;10.63;6.37;;;4.20;99.90;;;;;;4851946;29;20219;-81
2021/01/27 00:16:14;;;;;;;8.77;6.13;;;4.20;99.90;;;;;;4849258;29;20293;-82
2021/01/27 00:18:41;;;;;;;8.57;6.33;;;4.20;99.90;;;;;;4847229;29;20213;-83
2021/01/27 00:21:08;;;;;;;11.30;6.70;;;4.20;99.90;;;;;;4851684;29;20245;-83
2021/01/27 00:23:34;;;;;;;10.43;6.87;;;4.10;99.90;;;;;;4851559;29;20229;-83
2021/01/27 00:26:01;;;;;;;13.67;6.07;;;4.10;99.90;;;;;;4852389;29;20213;-83
2021/01/27 00:28:27;;;;;;;9.93;7.47;;;4.00;99.90;;;;;;4851754;29;20231;-83
2021/01/27 00:30:53;;;;;;;10.47;6.83;;;4.00;99.90;;;;;;4852382;29;20212;-83
2021/01/27 00:33:20;;;;;;;12.80;7.43;;;4.00;99.90;;;;;;4852573;29;20204;-81
2021/01/27 00:35:49;;;;;;;13.97;8.17;;;3.90;99.90;;;;;;4851133;29;20216;-81
2021/01/27 00:38:19;;;;;;;11.33;8.00;;;3.90;99.90;;;;;;4852783;29;20208;-82
2021/01/27 00:40:47;;;;;;;10.17;7.50;;;4.00;99.90;;;;;;4851342;29;20221;-83
2021/01/27 00:43:13;;;;;;;11.07;7.77;;;3.90;99.90;;;;;;4852072;29;20236;-80
2021/01/27 00:45:40;;;;;;;13.20;7.87;;;3.90;99.90;;;;;;4851713;29;20232;-81
2021/01/27 00:48:07;;;;;;;16.73;9.23;;;3.90;99.90;;;;;;4853142;29;20209;-83
2021/01/27 00:50:34;;;;;;;12.70;8.80;;;3.90;99.90;;;;;;4851452;29;20212;-83
2021/01/27 00:53:00;;;;;;;10.90;7.83;;;3.90;99.90;;;;;;4851476;29;20736;-82
2021/01/27 00:55:29;;;;;;;14.47;9.03;;;3.90;99.90;;;;;;4855286;29;20326;-82
2021/01/27 00:57:56;;;;;;;14.03;8.47;;;3.90;99.90;;;;;;4855729;29;20208;-83
2021/01/27 01:00:25;;;;;;;12.00;8.53;;;3.80;99.90;;;;;;4856181;29;20228;-83
2021/01/27 01:02:51;;;;;;;14.50;8.90;;;3.80;99.90;;;;;;4855353;29;20299;-82
2021/01/27 01:05:21;;;;;;;13.47;8.23;;;3.80;99.90;;;;;;4855185;29;20233;-83
2021/01/27 01:07:48;;;;;;;14.87;9.17;;;3.80;99.90;;;;;;4844891;29;20209;-83
2021/01/27 01:10:20;;;;;;;15.40;9.93;;;3.80;99.90;;;;;;4844498;29;20212;-84
2021/01/27 01:12:47;;;;;;;13.33;8.73;;;3.70;99.90;;;;;;4855338;29;20257;-83
2021/01/27 01:15:14;;;;;;;14.13;10.43;;;3.70;99.90;;;;;;4857087;29;20240;-84
2021/01/27 01:17:40;;;;;;;14.83;9.90;;;3.70;99.90;;;;;;4856564;29;20296;-83
2021/01/27 01:20:13;;;;;;;15.10;9.60;;;3.70;99.90;;;;;;4866275;29;20211;-84
2021/01/27 01:22:41;;;;;;;17.03;10.23;;;3.80;99.90;;;;;;4892465;29;20214;-80
2021/01/27 01:25:07;;;;;;;15.23;10.23;;;3.80;99.90;;;;;;4891742;29;20231;-82
2021/01/27 01:27:34;;;;;;;15.30;10.20;;;3.70;99.90;;;;;;4891212;29;20238;-81
2021/01/27 01:30:01;;;;;;;15.10;10.10;;;3.70;99.90;;;;;;4891972;29;20196;-82
2021/01/27 01:32:27;;;;;;;16.77;10.17;;;3.70;99.90;;;;;;4890491;29;20931;-81
2021/01/27 01:34:53;;;;;;;13.70;9.50;;;3.70;99.90;;;;;;4891081;29;20592;-83
2021/01/27 01:37:20;;;;;;;11.87;9.90;;;3.70;99.90;;;;;;4890988;29;20302;-81
2021/01/27 01:39:48;;;;;;;16.83;10.47;;;3.60;99.90;;;;;;4890295;29;20295;-81
2021/01/27 01:42:18;;;;;;;14.23;10.63;;;3.60;99.90;;;;;;4891693;29;20260;-80
2021/01/27 01:44:44;;;;;;;18.73;11.50;;;3.60;99.90;;;;;;4891235;29;20230;-81
2021/01/27 01:47:11;;;;;;;15.57;11.30;;;3.60;99.90;;;;;;4896035;29;20206;-81
2021/01/27 01:49:37;;;;;;;17.63;11.43;;;3.60;99.90;;;;;;4910241;29;20206;-80
2021/01/27 01:52:05;;;;;;;20.63;11.93;;;3.60;99.90;;;;;;4910342;29;20210;-80
2021/01/27 01:54:38;;;;;;;17.77;12.33;;;3.60;99.90;;;;;;4909558;29;20206;-81
2021/01/27 01:57:09;;;;;;;16.83;12.57;;;3.60;99.90;;;;;;4900630;29;20656;-81
2021/01/27 01:59:38;;;;;;;15.47;11.93;;;3.60;99.90;;;;;;4891898;29;20218;-80
2021/01/27 02:02:07;;;;;;;16.83;11.73;;;3.70;99.90;;;;;;4891310;29;20264;-81
2021/01/27 02:04:39;;;;;;;14.00;11.47;;;3.70;99.90;;;;;;4891500;29;20855;-80
2021/01/27 02:07:06;;;;;;;12.77;10.83;;;3.60;99.90;;;;;;4891389;29;20238;-83
2021/01/27 02:09:32;;;;;;;12.30;10.43;;;3.60;99.90;;;;;;4892407;29;20254;-82
2021/01/27 02:12:14;;;;;;;14.87;10.60;;;3.70;99.90;;;;;;4891319;29;20211;-82
2021/01/27 02:14:58;;;;;;;14.17;10.63;;;3.70;99.90;;;;;;4891615;29;20218;-82
2021/01/27 02:17:34;;;;;;;12.73;10.97;;;3.70;99.90;;;;;;4890476;29;20280;-83
2021/01/27 02:20:31;;;;;;;13.20;10.37;;;3.70;99.90;;;;;;4894044;29;20210;-84
2021/01/27 02:23:32;;;;;;;13.00;10.70;;;3.70;99.90;;;;;;4893128;29;20204;-83
2021/01/27 02:26:08;;;;;;;11.73;9.83;;;3.70;99.90;;;;;;4893369;29;20251;-81
2021/01/27 02:29:03;;;;;;;13.33;10.10;;;3.70;99.90;;;;;;4903641;29;20215;-83
2021/01/27 02:31:37;;;;;;;11.87;10.43;;;3.80;99.90;;;;;;4911766;29;20561;-80
2021/01/27 02:34:25;;;;;;;13.03;10.63;;;3.70;99.90;;;;;;4910370;29;20201;-81
2021/01/27 02:37:00;;;;;;;13.97;10.23;;;3.70;99.90;;;;;;4908967;29;20219;-81
2021/01/27 02:39:30;;;;;;;15.37;11.97;;;3.70;99.90;;;;;;4909489;29;21019;-80
2021/01/27 02:42:02;;;;;;;11.20;10.00;;;3.70;99.90;;;;;;4909620;29;20221;-81
2021/01/27 02:44:39;;;;;;;13.83;11.77;;;3.70;99.90;;;;;;4890711;29;20281;-83
2021/01/27 02:47:14;;;;;;;15.63;11.73;;;3.60;99.90;;;;;;4910261;29;20596;-80
2021/01/27 02:49:46;;;;;;;13.30;11.80;;;3.60;99.90;;;;;;4891270;29;20600;-80
2021/01/27 02:52:18;;;;;;;15.13;11.87;;;3.60;99.90;;;;;;4891070;29;20203;-83
2021/01/27 02:54:50;;;;;;;14.20;12.00;;;3.60;99.90;;;;;;4891391;29;20219;-81
2021/01/27 02:57:21;;;;;;;13.47;11.23;;;3.60;99.90;;;;;;4891257;29;20913;-81
2021/01/27 02:59:53;;;;;;;12.50;11.20;;;3.60;99.90;;;;;;4891288;29;20230;-81
2021/01/27 03:02:25;;;;;;;11.90;10.63;;;3.60;99.90;;;;;;4876727;29;20230;-82
2021/01/27 03:04:58;;;;;;;12.40;10.47;;;3.70;99.90;;;;;;4890926;29;20227;-80
2021/01/27 03:07:29;;;;;;;12.67;10.53;;;3.60;99.90;;;;;;4890417;29;20215;-82
2021/01/27 03:10:00;;;;;;;13.50;10.03;;;3.60;99.90;;;;;;4891722;29;20195;-81
2021/01/27 03:12:26;;;;;;;13.33;11.47;;;3.60;99.90;;;;;;4892200;29;20219;-84
2021/01/27 03:14:53;;;;;;;17.03;11.27;;;3.60;99.90;;;;;;4890659;29;20250;-81
2021/01/27 03:17:22;;;;;;;14.30;10.33;;;3.60;99.90;;;;;;4891139;29;20239;-81
2021/01/27 03:19:55;;;;;;;15.17;10.37;;;3.60;99.90;;;;;;4890956;29;20226;-80
2021/01/27 03:22:26;;;;;;;14.47;10.80;;;3.60;99.90;;;;;;4890745;29;20588;-81
2021/01/27 03:24:58;;;;;;;15.37;11.67;;;3.60;99.90;;;;;;4890467;29;20247;-84
2021/01/27 03:27:30;;;;;;;12.83;10.27;;;3.60;99.90;;;;;;4892993;29;20227;-83
2021/01/27 03:29:59;;;;;;;11.93;10.13;;;3.60;99.90;;;;;;4893652;29;20298;-83
2021/01/27 03:32:36;;;;;;;13.33;11.07;;;3.60;99.90;;;;;;4891876;29;20208;-81
2021/01/27 03:35:08;;;;;;;12.20;10.47;;;3.60;99.90;;;;;;4891934;29;20199;-81
2021/01/27 03:37:42;;;;;;;11.30;10.20;;;3.60;99.90;;;;;;4891372;29;20275;-82
2021/01/27 03:40:14;;;;;;;12.37;11.00;;;3.50;99.90;;;;;;4890703;29;20203;-81
2021/01/27 03:42:46;;;;;;;12.80;11.50;;;3.50;99.90;;;;;;4890754;29;20616;-80
2021/01/27 03:45:15;;;;;;;11.80;10.57;;;3.50;99.90;;;;;;4890680;29;20283;-81
2021/01/27 03:47:50;;;;;;;11.33;9.87;;;3.50;99.90;;;;;;4889611;29;20200;-84
2021/01/27 03:50:20;;;;;;;10.90;9.80;;;3.50;99.90;;;;;;4890491;29;20207;-83
2021/01/27 03:52:54;;;;;;;12.00;10.70;;;3.50;99.90;;;;;;4890084;29;20207;-80
2021/01/27 03:55:27;;;;;;;12.33;9.57;;;3.50;99.90;;;;;;4891285;29;20259;-83
2021/01/27 03:58:01;;;;;;;11.43;10.07;;;3.40;99.90;;;;;;4891287;29;20220;-84
2021/01/27 04:00:29;;;;;;;10.70;9.60;;;3.40;99.90;;;;;;4890957;29;20240;-81
2021/01/27 04:03:09;;;;;;;10.63;9.53;;;3.40;99.90;;;;;;4891150;29;20562;-85
2021/01/27 04:05:35;;;;;;;12.63;10.30;;;3.40;99.90;;;;;;4890851;29;20227;-82
2021/01/27 04:08:03;;;;;;;10.30;9.27;;;3.40;99.90;;;;;;4889871;29;20211;-84
2021/01/27 04:10:30;;;;;;;9.27;8.37;;;3.40;99.90;;;;;;4892751;29;20204;-81
2021/01/27 04:12:57;;;;;;;9.97;8.97;;;3.40;99.90;;;;;;4909745;29;20210;-83
2021/01/27 04:15:23;;;;;;;9.17;8.27;;;3.40;99.90;;;;;;4906774;29;20230;-84
2021/01/27 04:17:49;;;;;;;8.90;8.00;;;3.30;99.90;;;;;;4890656;29;20303;-80
2021/01/27 04:20:16;;;;;;;8.43;7.53;;;3.40;99.90;;;;;;4891586;29;20298;-81
2021/01/27 04:22:42;;;;;;;8.50;7.70;;;3.40;99.90;;;;;;4890100;29;20271;-83
2021/01/27 04:25:11;;;;;;;8.80;7.57;;;3.40;99.90;;;;;;4890465;29;20242;-83
2021/01/27 04:27:37;;;;;;;8.53;7.70;;;3.40;99.90;;;;;;4890330;29;20612;-82
2021/01/27 04:30:05;;;;;;;8.43;7.63;;;3.40;99.90;;;;;;4892574;29;20221;-85
2021/01/27 04:32:32;;;;;;;8.53;7.73;;;3.30;99.90;;;;;;4894739;29;20210;-80
2021/01/27 04:34:58;;;;;;;8.93;8.03;;;3.40;99.90;;;;;;4894801;29;20920;-82
2021/01/27 04:37:24;;;;;;;7.87;7.17;;;3.40;99.90;;;;;;4893448;29;20210;-81
2021/01/27 04:39:50;;;;;;;7.80;7.10;;;3.40;99.90;;;;;;4893666;29;20218;-83
2021/01/27 04:42:23;;;;;;;6.90;6.30;;;3.30;99.90;;;;;;4893686;29;20214;-80
2021/01/27 04:44:49;;;;;;;7.37;6.67;;;3.40;99.90;;;;;;4894257;29;20234;-79
2021/01/27 04:47:23;;;;;;;7.90;7.17;;;3.40;99.90;;;;;;4894770;29;20261;-85
2021/01/27 04:49:53;;;;;;;7.63;6.93;;;3.40;99.90;;;;;;4894899;29;20211;-84
2021/01/27 04:52:38;;;;;;;7.30;6.60;;;3.30;99.90;;;;;;4895199;29;20624;-83
2021/01/27 04:55:21;;;;;;;7.23;6.53;;;3.30;99.90;;;;;;4894721;29;20224;-81
2021/01/27 04:57:59;;;;;;;7.57;6.87;;;3.40;99.90;;;;;;4893342;29;20748;-81
2021/01/27 05:00:50;;;;;;;7.57;6.40;;;3.40;99.90;;;;;;4894444;29;20207;-85
2021/01/27 05:03:41;;;;;;;7.73;6.93;;;3.30;99.90;;;;;;4893576;29;20223;-80
2021/01/27 05:06:13;;;;;;;8.03;6.73;;;3.30;99.90;;;;;;4891076;29;20242;-82
2021/01/27 05:08:44;;;;;;;7.33;6.63;;;3.30;99.90;;;;;;4909370;29;20524;-81
2021/01/27 05:11:14;;;;;;;7.53;6.73;;;3.30;99.90;;;;;;4911095;29;20206;-86
2021/01/27 05:13:45;;;;;;;6.70;6.10;;;3.30;99.90;;;;;;4917226;29;20230;-86
2021/01/27 05:16:14;;;;;;;6.70;6.00;;;3.30;99.90;;;;;;4915511;29;20230;-82
2021/01/27 05:18:41;;;;;;;7.33;6.57;;;3.30;99.90;;;;;;4914343;29;20206;-86
2021/01/27 05:21:17;;;;;;;7.20;6.50;;;3.30;99.90;;;;;;4917348;29;20215;-86
2021/01/27 05:23:43;;;;;;;7.43;6.73;;;3.40;99.90;;;;;;4908973;29;20626;-87
2021/01/27 05:26:13;;;;;;;6.50;5.90;;;3.40;99.90;;;;;;4898303;29;20231;-88
2021/01/27 05:28:43;;;;;;;6.97;6.37;;;3.30;99.90;;;;;;4907263;29;20206;-87
2021/01/27 05:31:10;;;;;;;6.43;5.83;;;3.30;99.90;;;;;;4916347;29;20584;-85
2021/01/27 05:33:48;;;;;;;9.50;6.90;;;3.30;99.90;;;;;;4915721;29;20203;-87
2021/01/27 05:36:18;;;;;;;6.27;5.67;;;3.30;99.90;;;;;;4898346;29;20203;-87
2021/01/27 05:38:44;;;;;;;7.10;6.37;;;3.40;99.90;;;;;;4896363;29;20211;-87
2021/01/27 05:41:20;;;;;;;7.03;6.33;;;3.40;99.90;;;;;;4900882;29;20217;-88
2021/01/27 05:43:49;;;;;;;7.83;7.03;;;3.30;99.90;;;;;;4911128;29;20206;-87
2021/01/27 05:46:17;;;;;;;7.97;6.47;;;3.30;99.90;;;;;;4908709;29;20736;-85
2021/01/27 05:48:49;;;;;;;7.63;6.93;;;3.30;99.90;;;;;;4894487;29;20271;-86
2021/01/27 05:51:25;;;;;;;7.30;6.60;;;3.30;99.90;;;;;;4894767;29;20208;-83
2021/01/27 05:53:51;;;;;;;7.37;6.67;;;3.30;99.90;;;;;;4889621;29;20275;-81
2021/01/27 05:56:19;;;;;;;7.13;6.43;;;3.30;99.90;;;;;;4894294;29;20211;-87
2021/01/27 05:58:56;;;;;;;7.33;6.63;;;3.30;99.90;;;;;;4897621;29;20593;-87
2021/01/27 06:01:38;;;;;;;7.73;7.03;;;3.30;99.90;;;;;;4897733;29;20235;-87
2021/01/27 06:04:17;;;;;;;7.30;6.60;;;3.30;99.90;;;;;;4896905;29;20716;-87
2021/01/27 06:06:56;;;;;;;8.57;7.67;;;3.30;99.90;;;;;;4897642;29;20215;-84
2021/01/27 06:09:41;;;;;;;8.17;7.37;;;3.40;99.90;;;;;;4897666;29;20231;-87
2021/01/27 06:12:11;;;;;;;8.10;7.30;;;3.40;99.90;;;;;;4896914;29;20203;-87
2021/01/27 06:14:39;;;;;;;8.60;7.63;;;3.30;99.90;;;;;;4897303;29;20285;-86
2021/01/27 06:17:21;;;;;;;9.87;7.40;;;3.40;99.90;;;;;;4914023;29;20279;-85
2021/01/27 06:20:01;;;;;;;8.10;7.30;;;3.40;99.90;;;;;;4915109;29;20206;-87
2021/01/27 06:22:53;;;;;;;8.90;8.00;;;3.40;99.90;;;;;;4915517;29;20211;-86
2021/01/27 06:25:27;;;;;;;12.27;9.67;;;3.40;99.90;;;;;;4894341;29;20246;-86
2021/01/27 06:28:20;;;;;;;9.53;8.60;;;3.40;99.90;;;;;;4896018;29;20206;-87
2021/01/27 06:30:56;;;;;;;11.60;9.23;;;3.40;99.90;;;;;;4895124;29;20296;-87
2021/01/27 06:34:13;;;;;;;10.83;9.33;;;3.40;99.90;;;;;;4896721;29;20611;-86
2021/01/27 06:36:55;;;;;;;10.73;9.63;;;3.40;99.90;;;;;;4846555;29;20219;-84
2021/01/27 06:40:12;;;;;;;11.27;9.70;;;3.40;99.90;;;;;;4887701;29;20211;-85
2021/01/27 06:42:55;;;;;;;10.37;9.27;;;3.40;99.90;;;;;;4837350;29;20557;-85
2021/01/27 06:45:29;;;;;;;10.47;9.40;;;3.40;99.90;;;;;;4884751;29;20235;-85
2021/01/27 06:48:11;;;;;;;10.67;9.57;;;3.40;99.90;;;;;;4896580;29;20203;-85
2021/01/27 06:50:51;;;;;;;10.73;9.27;;;3.40;99.90;;;;;;4896042;29;20215;-84
2021/01/27 06:53:37;;;;;;;10.47;9.37;;;3.40;99.90;;;;;;4895302;29;20204;-85
2021/01/27 06:56:25;;;;;;;11.13;10.07;;;3.50;99.90;;;;;;4896253;29;20275;-85
2021/01/27 06:59:26;;;;;;;10.30;8.33;;;3.50;99.90;;;;;;4895338;29;20762;-86
2021/01/27 07:02:27;;;;;;;11.33;9.70;;;3.50;99.90;;;;;;4895513;29;20412;-85
2021/01/27 07:05:21;;;;;;;10.27;9.27;;;3.50;99.90;;;;;;4895130;29;20285;-84
2021/01/27 07:08:09;;;;;;;10.77;9.67;;;3.50;99.90;;;;;;4895343;29;20191;-81
2021/01/27 07:10:57;;;;;;;10.90;9.80;;;3.50;99.90;;;;;;4894665;29;20211;-85
2021/01/27 07:13:58;;;;;;;11.07;9.33;;;3.60;99.90;;;;;;4894983;29;20204;-85
2021/01/27 07:16:35;;;;;;;12.87;10.20;;;3.60;99.90;;;;;;4895473;29;20194;-83
2021/01/27 07:19:30;;;;;;;11.40;10.20;;;3.60;99.90;;;;;;4895430;29;20207;-82
2021/01/27 07:22:04;;;;;;;13.07;10.87;;;3.60;99.90;;;;;;4874365;29;20966;-84
2021/01/27 07:24:34;;;;;;;12.37;10.93;;;3.60;99.90;;;;;;4894395;29;20231;-84
2021/01/27 07:27:06;;;;;;;13.53;10.63;;;3.60;99.90;;;;;;4893951;29;20247;-86
2021/01/27 07:29:39;;;;;;;12.17;10.90;;;3.60;99.90;;;;;;4905549;29;20294;-80
2021/01/27 07:32:11;;;;;;;13.17;10.63;;;3.70;99.90;;;;;;4909698;29;20605;-83
2021/01/27 07:34:43;;;;;;;15.83;11.83;;;3.70;99.90;;;;;;4894407;29;20341;-84
2021/01/27 07:37:18;;;;;;;18.27;11.03;;;3.70;99.90;;;;;;4901256;29;20670;-84
2021/01/27 07:39:57;;;;;;;14.43;12.30;;;3.70;99.90;;;;;;4910207;29;20568;-81
2021/01/27 07:42:28;;;;;;;18.10;12.30;;;3.80;99.90;;;;;;4891669;29;20203;-81
2021/01/27 07:44:57;;;;;;;17.90;12.43;;;3.80;99.90;;;;;;4890573;29;20270;-79
2021/01/27 07:47:44;;;;;;;15.93;11.67;;;3.90;99.90;;;;;;4887826;29;20733;-78
2021/01/27 07:50:11;;;;;;;17.67;13.07;;;3.90;99.90;;;;;;4887454;29;20221;-79
2021/01/27 07:52:48;;;;;;;15.00;13.37;;;3.90;99.90;;;;;;4893484;29;20812;-78
2021/01/27 08:10:07;;;;;;;17.27;12.53;;;4.20;99.90;;;;;;5704034;23;20280;-77
2021/01/27 08:12:39;;;;;;;17.97;12.10;;;4.20;99.90;;;;;;4936814;29;20279;-80
2021/01/27 08:15:10;;;;;;;17.03;11.70;;;4.30;99.90;;;;;;4962317;28;20910;-78
2021/01/27 08:17:58;;;;;;;16.90;11.97;;;4.30;99.90;;;;;;4964134;28;20601;-80
2021/01/27 08:20:26;;;;;;;15.07;12.63;;;4.40;99.90;;;;;;4955815;28;20217;-81
2021/01/27 08:22:54;;;;;;;18.73;13.57;;;4.50;99.90;;;;;;4945234;29;20217;-79
2021/01/27 08:25:56;;;;;;;19.87;13.87;;;4.60;99.90;;;;;;4946695;29;20217;-84
2021/01/27 08:28:26;;;;;;;15.60;12.57;;;4.60;99.90;;;;;;4939376;29;20532;-79
2021/01/27 08:31:21;;;;;;;18.37;14.27;;;4.70;99.90;;;;;;4946141;29;20205;-80
2021/01/27 08:33:56;;;;;;;20.33;12.93;;;4.80;99.90;;;;;;4935265;29;20228;-78
2021/01/27 08:37:10;;;;;;;18.00;12.20;;;4.80;99.90;;;;;;4945019;29;20200;-78
2021/01/27 08:39:36;;;;;;;19.47;12.37;;;4.80;99.90;;;;;;4946000;29;20243;-79
2021/01/27 08:42:20;;;;;;;17.50;12.20;;;4.90;99.90;;;;;;4954129;28;20213;-79
2021/01/27 08:44:47;;;;;;;19.90;14.00;;;5.00;99.90;;;;;;4964403;28;20600;-80
2021/01/27 08:47:23;;;;;;;26.00;14.83;;;5.00;99.90;;;;;;4965653;28;20207;-76
2021/01/27 08:49:55;;;;;;;25.27;17.37;;;5.00;99.90;;;;;;4960973;28;20275;-78
2021/01/27 08:52:45;;;;;;;28.23;16.90;;;5.10;99.90;;;;;;4944543;29;20194;-80
2021/01/27 08:55:45;;;;;;;24.83;16.00;;;5.10;99.90;;;;;;4943719;29;20200;-78
2021/01/27 08:58:24;;;;;;;26.77;14.87;;;5.20;99.90;;;;;;4944307;29;20205;-77
2021/01/27 09:00:53;;;;;;;34.07;16.50;;;5.30;99.90;;;;;;4945769;28;20931;-79
2021/01/27 09:04:01;;;;;;;17.10;8.00;;;5.40;99.90;;;;;;4947336;29;20205;-81
2021/01/27 09:06:41;;;;;;;17.17;6.47;;;5.60;99.90;;;;;;4941626;29;20233;-82
2021/01/27 09:09:26;;;;;;;11.40;5.17;;;6.00;99.90;;;;;;4947710;28;20220;-82
2021/01/27 09:11:58;;;;;;;12.30;5.03;;;6.30;99.90;;;;;;4940837;29;20213;-82
2021/01/27 09:14:26;;;;;;;11.50;4.97;;;6.50;99.90;;;;;;4947356;28;20253;-81
2021/01/27 09:16:53;;;;;;;17.57;6.37;;;6.50;99.90;;;;;;4968219;28;20213;-80
2021/01/27 09:19:21;;;;;;;12.50;5.83;;;6.70;99.90;;;;;;4972258;28;20209;-81
2021/01/27 09:22:04;;;;;;;14.97;6.20;;;6.70;99.90;;;;;;4970904;28;20205;-83
2021/01/27 09:24:36;;;;;;;10.97;5.47;;;6.80;99.90;;;;;;4969091;28;21022;-80
2021/01/27 09:27:14;;;;;;;13.73;5.63;;;6.90;99.90;;;;;;4970943;28;20204;-83
2021/01/27 09:29:41;;;;;;;13.33;5.27;;;6.90;99.90;;;;;;4971518;28;20213;-79
2021/01/27 09:32:14;;;;;;;16.67;5.00;;;6.90;99.90;;;;;;4970414;28;20224;-82
2021/01/27 09:34:41;;;;;;;12.50;4.90;;;6.90;99.90;;;;;;4953181;28;20224;-83
2021/01/27 09:37:12;;;;;;;14.97;4.90;;;7.00;99.90;;;;;;4958773;28;20221;-84
2021/01/27 09:39:49;;;;;;;11.40;4.70;;;7.00;99.90;;;;;;4970568;28;20208;-82
2021/01/27 09:42:23;;;;;;;16.97;5.43;;;7.00;99.90;;;;;;4970691;28;20207;-83
2021/01/27 09:44:58;;;;;;;14.33;4.83;;;7.10;99.90;;;;;;4966297;28;20632;-82
2021/01/27 09:47:25;;;;;;;16.77;6.30;;;7.10;99.90;;;;;;4969188;28;20200;-82
2021/01/27 09:49:53;;;;;;;8.13;4.70;;;7.10;99.90;;;;;;4969850;28;20590;-82
2021/01/27 09:52:21;;;;;;;11.97;5.20;;;7.20;99.90;;;;;;4970458;28;20215;-81
2021/01/27 09:54:50;;;;;;;13.60;4.17;;;7.10;99.90;;;;;;4970697;28;20609;-82
2021/01/27 09:57:19;;;;;;;8.23;3.97;;;7.20;99.90;;;;;;4969473;28;20208;-81
2021/01/27 09:59:51;;;;;;;10.97;3.87;;;7.20;99.90;;;;;;4969336;28;20251;-82
2021/01/27 10:02:26;;;;;;;11.00;4.20;;;7.20;99.90;;;;;;4962242;28;20205;-81
2021/01/27 10:04:53;;;;;;;13.07;3.73;;;7.20;99.90;;;;;;4968967;28;20651;-81
2021/01/27 10:07:23;;;;;;;10.57;4.50;;;7.20;99.90;;;;;;4969761;28;20196;-82
2021/01/27 10:09:52;;;;;;;12.27;4.60;;;7.20;99.90;;;;;;4970693;28;20247;-82
2021/01/27 10:12:23;;;;;;;10.00;3.97;;;7.20;99.90;;;;;;4986921;28;20208;-81
2021/01/27 10:14:58;;;;;;;11.17;4.37;;;7.20;99.90;;;;;;4984606;28;20944;-82
2021/01/27 10:17:28;;;;;;;11.10;4.90;;;7.20;99.90;;;;;;4970478;28;20203;-81
2021/01/27 10:20:05;;;;;;;11.10;4.77;;;7.20;99.90;;;;;;4971114;28;20200;-83
2021/01/27 10:22:36;;;;;;;7.23;3.90;;;7.20;99.90;;;;;;4969769;28;20918;-82
2021/01/27 10:25:23;;;;;;;11.17;4.23;;;7.20;99.90;;;;;;4971436;28;20235;-86
2021/01/27 10:28:06;;;;;;;8.87;4.47;;;7.20;99.90;;;;;;4973958;28;20211;-83
2021/01/27 10:30:46;;;;;;;12.67;5.47;;;7.30;99.90;;;;;;4986090;28;20207;-85
2021/01/27 10:33:41;;;;;;;11.53;5.47;;;7.40;99.90;;;;;;4986838;28;20238;-82
2021/01/27 10:36:27;;;;;;;17.83;6.40;;;7.40;99.90;;;;;;4981745;28;20208;-81
2021/01/27 10:39:12;;;;;;;19.23;6.57;;;7.40;99.90;;;;;;4971133;28;20220;-84
2021/01/27 10:41:39;;;;;;;12.80;6.23;;;7.40;99.90;;;;;;4972816;28;20227;-84
2021/01/27 10:44:23;;;;;;;20.10;7.43;;;7.40;99.90;;;;;;4968715;28;20213;-83
2021/01/27 10:46:52;;;;;;;20.73;8.10;;;7.40;99.90;;;;;;4978039;28;20227;-82
2021/01/27 10:49:18;;;;;;;18.33;8.20;;;7.40;99.90;;;;;;4969818;28;20240;-82
2021/01/27 10:51:47;;;;;;;14.00;7.00;;;7.40;99.90;;;;;;4982089;28;20302;-82
2021/01/27 10:54:20;;;;;;;16.70;9.37;;;7.40;99.90;;;;;;4977447;28;20213;-82
2021/01/27 10:56:51;;;;;;;20.47;10.17;;;7.40;99.90;;;;;;4967128;28;20212;-82
2021/01/27 10:59:17;;;;;;;17.60;8.03;;;7.50;99.90;;;;;;4970653;28;20216;-83
2021/01/27 11:01:43;;;;;;;14.73;7.20;;;7.50;99.90;;;;;;4970108;28;20224;-83
2021/01/27 11:04:11;;;;;;;16.53;7.17;;;7.50;99.90;;;;;;4976520;28;20266;-82
2021/01/27 11:06:38;;;;;;;13.43;5.57;;;7.60;99.90;;;;;;4972764;28;20755;-82
2021/01/27 11:09:05;;;;;;;11.77;5.83;;;7.60;99.90;;;;;;4974155;28;20225;-82
2021/01/27 11:11:32;;;;;;;8.07;4.27;;;7.50;99.90;;;;;;4964086;28;20236;-84
2021/01/27 11:13:58;;;;;;;11.70;5.13;;;7.60;99.90;;;;;;4976389;28;20219;-84
2021/01/27 11:16:24;;;;;;;15.20;5.33;;;7.50;99.90;;;;;;4982041;28;20216;-84
2021/01/27 11:18:50;;;;;;;11.50;4.77;;;7.50;99.90;;;;;;4985912;28;20204;-84
2021/01/27 11:21:18;;;;;;;10.77;4.10;;;7.50;99.90;;;;;;4972203;28;20848;-84
2021/01/27 11:23:45;;;;;;;8.43;3.90;;;7.60;99.90;;;;;;4973067;28;20213;-83
2021/01/27 11:26:11;;;;;;;12.03;3.73;;;7.60;99.90;;;;;;4968769;28;20239;-82
2021/01/27 11:28:38;;;;;;;9.23;3.37;;;7.60;99.90;;;;;;4968439;28;20311;-83
2021/01/27 11:31:04;;;;;;;10.60;3.83;;;7.50;99.90;;;;;;4967195;28;20212;-82
2021/01/27 11:33:30;;;;;;;11.73;4.17;;;7.60;99.90;;;;;;4965184;28;20220;-82
2021/01/27 11:35:57;;;;;;;7.43;3.93;;;7.60;99.90;;;;;;4964651;28;20212;-82
2021/01/27 11:38:24;;;;;;;7.30;4.73;;;7.60;99.90;;;;;;4963897;28;20263;-82
2021/01/27 11:40:51;;;;;;;8.27;4.07;;;7.60;99.90;;;;;;4964639;28;20680;-81
2021/01/27 11:43:17;;;;;;;9.47;4.77;;;7.70;99.90;;;;;;4969526;28;20239;-79
2021/01/27 11:45:44;;;;;;;7.93;3.33;;;7.60;99.90;;;;;;4985872;28;20773;-82
2021/01/27 11:48:10;;;;;;;6.30;3.23;;;7.60;99.90;;;;;;4986255;28;20877;-82
2021/01/27 11:50:37;;;;;;;6.37;3.77;;;7.70;99.90;;;;;;4986021;28;20251;-82
2021/01/27 11:53:03;;;;;;;7.43;3.00;;;7.80;99.90;;;;;;4974138;28;20217;-77
2021/01/27 11:55:30;;;;;;;8.97;3.37;;;7.90;99.90;;;;;;4967218;28;20204;-82
2021/01/27 11:57:57;;;;;;;8.20;2.97;;;8.00;99.90;;;;;;4966217;28;20204;-82
2021/01/27 12:00:23;;;;;;;7.93;2.87;;;8.00;99.90;;;;;;4984458;28;20224;-83
2021/01/27 12:02:50;;;;;;;9.97;2.60;;;8.10;99.90;;;;;;4973793;28;20213;-80
2021/01/27 12:05:18;;;;;;;7.27;2.43;;;8.10;99.90;;;;;;4963484;28;20987;-82
2021/01/27 12:07:44;;;;;;;6.03;2.50;;;8.10;99.90;;;;;;4965844;28;20205;-82
2021/01/27 12:10:11;;;;;;;9.30;2.37;;;8.20;99.90;;;;;;4966084;28;20717;-84
2021/01/27 12:12:39;;;;;;;9.23;3.00;;;8.20;99.90;;;;;;4965817;28;20216;-79
2021/01/27 12:15:06;;;;;;;17.10;4.73;;;8.20;99.90;;;;;;4964997;28;20645;-80
2021/01/27 12:17:33;;;;;;;15.00;4.27;;;8.20;99.90;;;;;;4966123;28;20208;-84
2021/01/27 12:19:59;;;;;;;10.23;4.60;;;8.30;99.90;;;;;;4965579;28;20209;-82
2021/01/27 12:22:25;;;;;;;9.47;4.17;;;8.30;99.90;;;;;;4965966;28;20205;-79
2021/01/27 12:24:51;;;;;;;12.17;5.00;;;8.30;99.90;;;;;;4965995;28;20256;-82
2021/01/27 12:27:18;;;;;;;14.43;5.60;;;8.30;99.90;;;;;;4965108;28;20209;-82
2021/01/27 12:29:45;;;;;;;19.13;8.70;;;8.30;99.90;;;;;;4967192;28;20208;-81
2021/01/27 12:32:11;;;;;;;8.93;5.40;;;8.30;99.90;;;;;;4965803;28;20268;-80
2021/01/27 12:34:38;;;;;;;13.17;6.07;;;8.30;99.90;;;;;;4964899;28;20275;-80
2021/01/27 12:37:04;;;;;;;12.43;6.30;;;8.20;99.90;;;;;;4965937;28;20289;-80
2021/01/27 12:39:30;;;;;;;13.47;6.00;;;8.20;99.90;;;;;;4966509;28;20196;-80
2021/01/27 12:41:56;;;;;;;17.77;6.13;;;8.30;99.90;;;;;;4963861;28;20844;-79
2021/01/27 12:44:23;;;;;;;16.97;7.10;;;8.20;99.90;;;;;;4965915;28;20220;-81
2021/01/27 12:46:53;;;;;;;8.23;5.87;;;8.30;99.90;;;;;;4965647;28;20232;-79
2021/01/27 12:49:20;;;;;;;9.63;5.57;;;8.30;99.90;;;;;;4964075;28;20240;-80
2021/01/27 12:51:46;;;;;;;9.23;5.57;;;8.20;99.90;;;;;;4967825;28;20221;-82
2021/01/27 12:54:12;;;;;;;14.93;5.53;;;8.20;99.90;;;;;;4967776;28;20205;-80
2021/01/27 12:56:38;;;;;;;10.87;6.07;;;8.20;99.90;;;;;;4969230;28;20200;-79
2021/01/27 12:59:05;;;;;;;12.07;6.67;;;8.20;99.90;;;;;;4984074;28;20215;-80
2021/01/27 13:01:31;;;;;;;15.43;6.87;;;8.30;99.90;;;;;;4987313;28;20534;-82
2021/01/27 13:03:58;;;;;;;15.87;7.53;;;8.30;99.90;;;;;;4985615;28;20196;-80
2021/01/27 13:06:24;;;;;;;13.40;6.90;;;8.30;99.90;;;;;;4986261;28;20231;-79
2021/01/27 13:08:51;;;;;;;16.10;6.70;;;8.30;99.90;;;;;;4973020;28;20212;-80
2021/01/27 13:11:18;;;;;;;15.37;6.20;;;8.30;99.90;;;;;;4977845;28;20252;-82
2021/01/27 13:13:45;;;;;;;15.67;6.50;;;8.30;99.90;;;;;;4987190;28;20199;-80
2021/01/27 13:16:11;;;;;;;10.17;5.87;;;8.40;99.90;;;;;;4950945;28;20211;-80
2021/01/27 13:18:37;;;;;;;11.53;5.40;;;8.40;99.90;;;;;;4967856;28;20938;-79
2021/01/27 13:21:04;;;;;;;10.50;5.43;;;8.40;99.90;;;;;;4968444;28;20949;-79
2021/01/27 13:23:31;;;;;;;14.43;5.80;;;8.30;99.90;;;;;;4967524;28;20204;-81
2021/01/27 13:25:58;;;;;;;15.37;6.00;;;8.30;99.90;;;;;;4950941;28;20264;-79
2021/01/27 13:28:24;;;;;;;18.43;6.43;;;8.30;99.90;;;;;;4973853;28;20216;-79